Terminal Aerodrome Forecast
Issued by NWS

Home | Current Version | Previous Version | Graphics & Text | Print | Product List | Glossary On
Versions: 1 2 3 4 5 6 7 8 9 10 11 12 13 14 15 16 17 18 19 20 21 22 23 24
000
FTUS41 KCLE 230500
TAFFDY
TAF
KFDY 230521Z 2306/2406 09008KT 6SM -RA OVC050
     FM230800 12008KT 3SM -SHRA SCT012 OVC025
     FM231200 17008KT 2SM -DZ BR SCT003 OVC008
     FM231500 20012KT 5SM HZ SCT008 OVC012=

USA.gov is the U.S. government's official web portal to all federal, state and local government web resources and services.